Anniston, MO

10:58 PM CDT on August 20, 2014 (GMT -0500)
MRM Ag Services- Hwy 80 | Change Station
CLOSE
Current Station
Personal Weather Station
Location: East Prairie, MO
Elevation: 305 ft
Nearby Weather Stations
Active Advisory: Heat Advisory Active Notice: Public Information Statement

Elev 305 ft 36.78 °N, 89.39 °W | Updated 3 minutes ago

Clear
Clear
79.6 °F
Feels Like 84 °F
N
0.0
Wind Variable Wind from SSE
Gusts 5.0 mph

Today
High -- | Low -- °F
--% Chance of Precip.
Yesterday
High -- | Low -- °F
Precip. -- in
6:18 AM 7:42 PM
Waning Crescent, 17% visible
Pressure 30.02 in
Visibility 10.0 miles
Clouds Clear
Heat Index 84 °F
Dew Point 76 °F
Humidity 88%
Rainfall 0.00 in
Snow Depth Not available.
UV 0.0 out of 12
Pollen 10.20 out of 12
Air Quality Not available.
Flu Activity Not available.
METAR KCIR 210335Z AUTO 17007KT 10SM CLR 29/23 A3002 RMK AO2 T02850232

More Conditions Fewer Conditions

Pressure 30.02 in
Visibility 10.0 miles
Clouds Clear
Heat Index 84 °F
Dew Point 76 °F
Humidity 88%
Rainfall 0.00 in
Snow Depth Not available.
UV 0.0 out of 12
Pollen 10.20 out of 12
Air Quality Not available.
Flu Activity Not available.
METAR KCIR 210335Z AUTO 17007KT 10SM CLR 29/23 A3002 RMK AO2 T02850232

More Conditions Fewer Conditions

10-Day Weather Forecast

Almanac

Astronomy

Aug. 20, 2014 Rise Set
Actual Time 6:18 AM CDT 7:42 PM CDT
Civil Twilight 5:51 AM CDT 8:09 PM CDT
Nautical Twilight 5:18 AM CDT 8:41 PM CDT
Astronomical Twilight 4:44 AM CDT 9:15 PM CDT
Moon 2:01 AM CDT (8/20) 4:24 PM CDT (8/20)
Length of Visible Light 14h 18m
Length of Day
13h 23m
Tomorrow will be 2m 9s shorter.
Waning Crescent, 17% of the Moon is Illuminated
Today
Waning Crescent
Aug 25
New
Sep 2
First Quarter
Sep 8
Full
Sep 15
Last Quarter

Today's Extremes

State Highs State Lows

Community

WunderPhotos

Upload Photos

1,745,851 photos uploaded!

Nearby

Snow Depth

Station Depth Elevation
No new snow has been reported.

Earthquake Activity

City Distance Mag. Time & Date
No recent earthquake activity has been reported nearby.
Minimum magnitude displayed is 2.5.

Coastal Water Temperatures

Place Temperature
No Stations Reporting

Nearby Weather Stations